Ballerina — SKNY — position and weather

sailwx.info

Track history (hours):
 
Tides and Currents Weather Stations Pressure Air Temp Water Temp Dewpoint Dewpoint Depression Visibility Wind Speed Wind Dir Waves Ship Positions

Ballerina

Last reported at 2015-Sep-01 17:33 UTC. Time now 2015-Sep-01 18:12 UTC.
Position N 59°22' E 018°06'.

Type: Passenger vessel. MMSI: 265550720.

Date/timePositionNaut miles runAvg speedWind from/ knotsBaromVisibWave heightAir tempDewpointWater temp
2015-Sep-01 17:33N 59°22' E 018°06'2 1.1
2015-Sep-01 15:32N 59°24' E 018°08'2 1.9
2015-Sep-01 14:33N 59°22' E 018°06'0 0.1
2015-Sep-01 08:09N 59°22' E 018°06'1 1.1
2015-Sep-01 07:13N 59°23' E 018°05'1 1.8
2015-Sep-01 06:25N 59°22' E 018°06'0 0.4
2015-Sep-01 05:13N 59°22' E 018°06'0 0.0
2015-Aug-31 17:32N 59°22' E 018°06'0 0.2
2015-Aug-31 16:05N 59°22' E 018°06'2 3.1
2015-Aug-31 15:31N 59°24' E 018°08'2 1.8
2015-Aug-31 14:33N 59°22' E 018°06'0 0.0
2015-Aug-31 08:06N 59°22' E 018°06'2 3.3
2015-Aug-31 07:32N 59°24' E 018°09'3 2.4
2015-Aug-31 06:29N 59°22' E 018°06'1 1.5
2015-Aug-31 05:33N 59°23' E 018°05'2 1.4
2015-Aug-31 04:28N 59°24' E 018°08'2 0.1
2015-Aug-30 16:32N 59°23' E 018°06'0 0.3
2015-Aug-30 15:06N 59°22' E 018°06'1 1.9
2015-Aug-30 14:23N 59°24' E 018°07'1 1.5
2015-Aug-30 13:32N 59°23' E 018°06'0 0.1
2015-Aug-30 11:03N 59°23' E 018°06'2 2.6
2015-Aug-30 10:27N 59°24' E 018°08'2 1.7
2015-Aug-30 09:32N 59°23' E 018°06'0 0.0
2015-Aug-29 16:30N 59°23' E 018°06'1 1.2
2015-Aug-29 15:30N 59°22' E 018°06'3 2.5
2015-Aug-29 14:31N 59°24' E 018°08'2 1.6
2015-Aug-29 13:31N 59°23' E 018°06'0 0.2
2015-Aug-29 11:06N 59°22' E 018°06'1 1.9
2015-Aug-29 10:23N 59°24' E 018°07'1 1.5
2015-Aug-29 09:33N 59°23' E 018°06'1 1.1
2015-Aug-29 08:31N 59°22' E 018°06'2 1.8
2015-Aug-29 07:22N 59°24' E 018°07'1 0.1
2015-Aug-28 17:33N 59°23' E 018°06'1 1.1
2015-Aug-28 16:31N 59°22' E 018°06'3 2.6
2015-Aug-28 15:31N 59°24' E 018°08'2 2.0
2015-Aug-28 14:33N 59°22' E 018°06'0 0.0
2015-Aug-28 08:09N 59°22' E 018°06'2 3.0
2015-Aug-28 07:30N 59°24' E 018°09'2 1.6
2015-Aug-28 06:18N 59°23' E 018°06'0 0.1
2015-Aug-28 05:32N 59°23' E 018°06'2 1.5
2015-Aug-28 04:30N 59°24' E 018°08'2 0.2
2015-Aug-27 17:33N 59°22' E 018°06'2 1.2
2015-Aug-27 15:33N 59°24' E 018°08'2 2.1
2015-Aug-27 14:32N 59°23' E 018°06'1 0.2
2015-Aug-27 08:14N 59°22' E 018°06'2 3.7
2015-Aug-27 07:33N 59°24' E 018°09'2 1.6
2015-Aug-27 06:19N 59°23' E 018°06'0 0.3
2015-Aug-27 05:33N 59°23' E 018°06'1 1.4
2015-Aug-27 04:29N 59°24' E 018°08'1 0.1
2015-Aug-26 17:25N 59°24' E 018°06'1 0.6
2015-Aug-26 15:32N 59°24' E 018°08'2 0.1
2015-Aug-25 17:31N 59°22' E 018°06'1 0.5
2015-Aug-25 16:31N 59°22' E 018°06'1 1.1
2015-Aug-25 15:14N 59°23' E 018°05'1 1.0
2015-Aug-25 14:33N 59°22' E 018°06'1 0.1
2015-Aug-25 08:13N 59°22' E 018°06'1 0.4
2015-Aug-25 06:25N 59°22' E 018°06'0 0.4
2015-Aug-25 05:30N 59°23' E 018°06'0 0.2
2015-Aug-25 04:16N 59°23' E 018°06'0 0.0
2015-Aug-24 17:28N 59°23' E 018°06'0 0.1
2015-Aug-24 15:14N 59°23' E 018°06'1 1.0
2015-Aug-24 14:33N 59°22' E 018°06'1 0.1
2015-Aug-24 08:10N 59°22' E 018°06'1 1.4
2015-Aug-24 07:12N 59°23' E 018°06'1 2.0
2015-Aug-24 06:30N 59°22' E 018°06'1 1.2
2015-Aug-24 05:32N 59°23' E 018°06'0 0.2
2015-Aug-24 04:16N 59°23' E 018°05'0 0.0
2015-Aug-23 16:33N 59°23' E 018°05'1 1.2
2015-Aug-23 15:31N 59°22' E 018°06'1 1.1
2015-Aug-23 14:12N 59°23' E 018°05'0 0.6
2015-Aug-23 13:33N 59°23' E 018°06'1 0.5
2015-Aug-23 11:13N 59°22' E 018°06'1 1.1
2015-Aug-23 10:10N 59°23' E 018°06'  
Track history (hours):
 
Tides and Currents Weather Stations Pressure Air Temp Water Temp Dewpoint Dewpoint Depression Visibility Wind Speed Wind Dir Waves Ship Positions

Ballerina

Last reported at 2015-Sep-01 17:33 UTC. Time now 2015-Sep-01 18:12 UTC.
Position N 59°22' E 018°06'.

Type: Passenger vessel. MMSI: 265550720.

Date/timePositionNaut miles runAvg speedWind from/ knotsBaromVisibWave heightAir tempDewpointWater temp
2015-Sep-01 17:33N 59°22' E 018°06'2 1.1
2015-Sep-01 15:32N 59°24' E 018°08'2 1.9
2015-Sep-01 14:33N 59°22' E 018°06'0 0.1
2015-Sep-01 08:09N 59°22' E 018°06'1 1.1
2015-Sep-01 07:13N 59°23' E 018°05'1 1.8
2015-Sep-01 06:25N 59°22' E 018°06'0 0.4
2015-Sep-01 05:13N 59°22' E 018°06'0 0.0
2015-Aug-31 17:32N 59°22' E 018°06'0 0.2
2015-Aug-31 16:05N 59°22' E 018°06'2 3.1
2015-Aug-31 15:31N 59°24' E 018°08'2 1.8
2015-Aug-31 14:33N 59°22' E 018°06'0 0.0
2015-Aug-31 08:06N 59°22' E 018°06'2 3.3
2015-Aug-31 07:32N 59°24' E 018°09'3 2.4
2015-Aug-31 06:29N 59°22' E 018°06'1 1.5
2015-Aug-31 05:33N 59°23' E 018°05'2 1.4
2015-Aug-31 04:28N 59°24' E 018°08'2 0.1
2015-Aug-30 16:32N 59°23' E 018°06'0 0.3
2015-Aug-30 15:06N 59°22' E 018°06'1 1.9
2015-Aug-30 14:23N 59°24' E 018°07'1 1.5
2015-Aug-30 13:32N 59°23' E 018°06'0 0.1
2015-Aug-30 11:03N 59°23' E 018°06'2 2.6
2015-Aug-30 10:27N 59°24' E 018°08'2 1.7
2015-Aug-30 09:32N 59°23' E 018°06'0 0.0
2015-Aug-29 16:30N 59°23' E 018°06'1 1.2
2015-Aug-29 15:30N 59°22' E 018°06'3 2.5
2015-Aug-29 14:31N 59°24' E 018°08'2 1.6
2015-Aug-29 13:31N 59°23' E 018°06'0 0.2
2015-Aug-29 11:06N 59°22' E 018°06'1 1.9
2015-Aug-29 10:23N 59°24' E 018°07'1 1.5
2015-Aug-29 09:33N 59°23' E 018°06'1 1.1
2015-Aug-29 08:31N 59°22' E 018°06'2 1.8
2015-Aug-29 07:22N 59°24' E 018°07'1 0.1
2015-Aug-28 17:33N 59°23' E 018°06'1 1.1
2015-Aug-28 16:31N 59°22' E 018°06'3 2.6
2015-Aug-28 15:31N 59°24' E 018°08'2 2.0
2015-Aug-28 14:33N 59°22' E 018°06'0 0.0
2015-Aug-28 08:09N 59°22' E 018°06'2 3.0
2015-Aug-28 07:30N 59°24' E 018°09'2 1.6
2015-Aug-28 06:18N 59°23' E 018°06'0 0.1
2015-Aug-28 05:32N 59°23' E 018°06'2 1.5
2015-Aug-28 04:30N 59°24' E 018°08'2 0.2
2015-Aug-27 17:33N 59°22' E 018°06'2 1.2
2015-Aug-27 15:33N 59°24' E 018°08'2 2.1
2015-Aug-27 14:32N 59°23' E 018°06'1 0.2
2015-Aug-27 08:14N 59°22' E 018°06'2 3.7
2015-Aug-27 07:33N 59°24' E 018°09'2 1.6
2015-Aug-27 06:19N 59°23' E 018°06'0 0.3
2015-Aug-27 05:33N 59°23' E 018°06'1 1.4
2015-Aug-27 04:29N 59°24' E 018°08'1 0.1
2015-Aug-26 17:25N 59°24' E 018°06'1 0.6
2015-Aug-26 15:32N 59°24' E 018°08'2 0.1
2015-Aug-25 17:31N 59°22' E 018°06'1 0.5
2015-Aug-25 16:31N 59°22' E 018°06'1 1.1
2015-Aug-25 15:14N 59°23' E 018°05'1 1.0
2015-Aug-25 14:33N 59°22' E 018°06'1 0.1
2015-Aug-25 08:13N 59°22' E 018°06'1 0.4
2015-Aug-25 06:25N 59°22' E 018°06'0 0.4
2015-Aug-25 05:30N 59°23' E 018°06'0 0.2
2015-Aug-25 04:16N 59°23' E 018°06'0 0.0
2015-Aug-24 17:28N 59°23' E 018°06'0 0.1
2015-Aug-24 15:14N 59°23' E 018°06'1 1.0
2015-Aug-24 14:33N 59°22' E 018°06'1 0.1
2015-Aug-24 08:10N 59°22' E 018°06'1 1.4
2015-Aug-24 07:12N 59°23' E 018°06'1 2.0
2015-Aug-24 06:30N 59°22' E 018°06'1 1.2
2015-Aug-24 05:32N 59°23' E 018°06'0 0.2
2015-Aug-24 04:16N 59°23' E 018°05'0 0.0
2015-Aug-23 16:33N 59°23' E 018°05'1 1.2
2015-Aug-23 15:31N 59°22' E 018°06'1 1.1
2015-Aug-23 14:12N 59°23' E 018°05'0 0.6
2015-Aug-23 13:33N 59°23' E 018°06'1 0.5
2015-Aug-23 11:13N 59°22' E 018°06'1 1.1
2015-Aug-23 10:10N 59°23' E 018°06'  

Dump ship's entire track history